Time;durP1;ratioP1;P1;durP2;ratioP2;P2;SDS_P1;SDS_P2;PMS_P1;PMS_P2;Temp;Humidity;BMP_temperature;BMP_pressure;BME280_temperature;BME280_humidity;BME280_pressure;Samples;Min_cycle;Max_cycle;Signal;HPM_P1;HPM_P2
2021/12/03 00:00:48;;;;;;;3.58;0.80;;;;;;;;;;4831903;29;20053;-79
2021/12/03 00:03:15;;;;;;;4.03;1.10;;;;;;;;;;4830632;29;20102;-78
2021/12/03 00:05:41;;;;;;;1.58;0.75;;;;;;;;;;4827905;29;20352;-78
2021/12/03 00:08:09;;;;;;;2.20;0.95;;;;;;;;;;4843401;29;20050;-76
2021/12/03 00:10:37;;;;;;;2.97;1.10;;;;;;;;;;4834337;29;20081;-77
2021/12/03 00:13:05;;;;;;;2.17;0.82;;;;;;;;;;4834545;29;20069;-77
2021/12/03 00:15:34;;;;;;;3.28;0.95;;;;;;;;;;4835311;29;20104;-77
2021/12/03 00:18:01;;;;;;;2.63;0.70;;;;;;;;;;4836988;29;20493;-78
2021/12/03 00:20:28;;;;;;;3.65;1.00;;;;;;;;;;4838624;29;20061;-77
2021/12/03 00:22:57;;;;;;;3.92;0.90;;;;;;;;;;4835451;29;20069;-79
2021/12/03 00:25:24;;;;;;;1.20;0.70;;;;;;;;;;4840178;29;20053;-76
2021/12/03 00:27:51;;;;;;;2.35;0.65;;;;;;;;;;4840753;29;20460;-76
2021/12/03 00:30:18;;;;;;;0.95;0.68;;;;;;;;;;4832634;29;20088;-81
2021/12/03 00:32:45;;;;;;;4.68;0.82;;;;;;;;;;4827233;29;20054;-78
2021/12/03 00:35:12;;;;;;;2.33;0.80;;;;;;;;;;4825863;29;20066;-80
2021/12/03 00:37:40;;;;;;;5.70;0.85;;;;;;;;;;4825103;29;20148;-76
2021/12/03 00:40:09;;;;;;;3.00;0.85;;;;;;;;;;4808925;29;20144;-77
2021/12/03 00:42:37;;;;;;;1.63;0.80;;;;;;;;;;4823798;29;20586;-78
2021/12/03 00:45:04;;;;;;;3.42;0.90;;;;;;;;;;4807349;29;20067;-78
2021/12/03 00:47:31;;;;;;;3.25;0.90;;;;;;;;;;4825056;29;20500;-77
2021/12/03 00:49:57;;;;;;;1.50;0.70;;;;;;;;;;4825175;29;20141;-76
2021/12/03 00:52:23;;;;;;;3.53;0.95;;;;;;;;;;4826631;29;20090;-79
2021/12/03 00:54:49;;;;;;;4.43;0.90;;;;;;;;;;4829861;29;20665;-76
2021/12/03 00:57:16;;;;;;;7.65;1.13;;;;;;;;;;4829559;29;20595;-78
2021/12/03 00:59:43;;;;;;;3.58;1.10;;;;;;;;;;4824817;29;20918;-78
2021/12/03 01:02:11;;;;;;;3.83;1.27;;;;;;;;;;4817590;29;20256;-77
2021/12/03 01:04:37;;;;;;;3.85;1.20;;;;;;;;;;4825050;29;20058;-78
2021/12/03 01:07:03;;;;;;;2.25;1.02;;;;;;;;;;4825974;29;20125;-76
2021/12/03 01:09:31;;;;;;;3.30;0.82;;;;;;;;;;4826635;29;20058;-76
2021/12/03 01:11:59;;;;;;;4.68;1.10;;;;;;;;;;4822689;29;20138;-77
2021/12/03 01:14:26;;;;;;;2.85;1.13;;;;;;;;;;4821952;29;20355;-77
2021/12/03 01:16:52;;;;;;;4.20;1.30;;;;;;;;;;4822206;29;20149;-77
2021/12/03 01:19:19;;;;;;;2.30;1.05;;;;;;;;;;4825918;29;20145;-77
2021/12/03 01:21:46;;;;;;;4.15;1.10;;;;;;;;;;4827075;29;20051;-80
2021/12/03 01:24:14;;;;;;;2.47;0.70;;;;;;;;;;4828988;29;20058;-79
2021/12/03 01:26:42;;;;;;;4.35;0.90;;;;;;;;;;4824242;29;20084;-77
2021/12/03 01:29:08;;;;;;;5.25;1.00;;;;;;;;;;4822762;29;20513;-77
2021/12/03 01:31:35;;;;;;;1.73;0.73;;;;;;;;;;4816342;29;20105;-77
2021/12/03 01:34:01;;;;;;;2.05;0.80;;;;;;;;;;4826934;29;20121;-74
2021/12/03 01:36:28;;;;;;;1.08;0.68;;;;;;;;;;4824615;29;20085;-75
2021/12/03 01:38:54;;;;;;;2.33;0.70;;;;;;;;;;4825454;29;20072;-75
2021/12/03 01:41:20;;;;;;;2.63;0.95;;;;;;;;;;4824299;29;20061;-75
2021/12/03 01:43:46;;;;;;;2.95;0.70;;;;;;;;;;4819715;29;20210;-77
2021/12/03 01:46:18;;;;;;;12.77;1.15;;;;;;;;;;4825311;29;20159;-76
2021/12/03 01:48:45;;;;;;;4.05;0.80;;;;;;;;;;4822833;29;20301;-77
2021/12/03 01:51:11;;;;;;;1.52;0.90;;;;;;;;;;4825126;29;20066;-78
2021/12/03 01:53:39;;;;;;;2.53;0.82;;;;;;;;;;4817130;29;20073;-76
2021/12/03 01:56:10;;;;;;;3.25;0.80;;;;;;;;;;4828630;29;20729;-74
2021/12/03 01:58:38;;;;;;;4.20;0.65;;;;;;;;;;4824450;29;20094;-77
2021/12/03 02:01:08;;;;;;;2.95;0.77;;;;;;;;;;4825499;29;20062;-77
2021/12/03 02:03:37;;;;;;;9.65;1.10;;;;;;;;;;4819125;29;20149;-76
2021/12/03 02:06:05;;;;;;;3.15;0.70;;;;;;;;;;4823112;29;20128;-76
2021/12/03 02:08:32;;;;;;;1.50;0.88;;;;;;;;;;4827268;29;20062;-76
2021/12/03 02:10:59;;;;;;;2.28;0.90;;;;;;;;;;4831253;29;20058;-76
2021/12/03 02:13:25;;;;;;;3.30;0.93;;;;;;;;;;4829518;29;20125;-77
2021/12/03 02:15:51;;;;;;;2.35;0.98;;;;;;;;;;4822969;29;20470;-77
2021/12/03 02:18:18;;;;;;;1.55;0.80;;;;;;;;;;4819830;29;20085;-75
2021/12/03 02:20:48;;;;;;;2.22;1.08;;;;;;;;;;4822311;29;20046;-75
2021/12/03 02:23:15;;;;;;;2.08;0.63;;;;;;;;;;4820483;29;20532;-77
2021/12/03 02:25:42;;;;;;;1.90;0.80;;;;;;;;;;4818987;29;20069;-78
2021/12/03 02:28:09;;;;;;;4.70;1.60;;;;;;;;;;4822194;29;20069;-76
2021/12/03 02:30:36;;;;;;;2.40;0.70;;;;;;;;;;4824330;29;20072;-78
2021/12/03 02:33:03;;;;;;;3.15;0.80;;;;;;;;;;4802748;29;20062;-75
2021/12/03 02:35:29;;;;;;;1.38;0.60;;;;;;;;;;4822099;29;20842;-77
2021/12/03 02:37:56;;;;;;;1.70;0.95;;;;;;;;;;4822778;29;20084;-77
2021/12/03 02:40:23;;;;;;;3.40;0.68;;;;;;;;;;4824712;29;20058;-75
2021/12/03 02:42:51;;;;;;;1.85;0.80;;;;;;;;;;4822657;29;20136;-76
2021/12/03 02:45:19;;;;;;;3.03;0.80;;;;;;;;;;4824382;29;20057;-76
2021/12/03 02:47:47;;;;;;;2.63;0.80;;;;;;;;;;4826159;29;20073;-75
2021/12/03 02:50:15;;;;;;;1.55;0.70;;;;;;;;;;4822414;29;20073;-77
2021/12/03 02:52:44;;;;;;;2.35;0.70;;;;;;;;;;4819683;29;20847;-74
2021/12/03 02:55:10;;;;;;;3.20;0.70;;;;;;;;;;4820004;29;20080;-77
2021/12/03 02:57:37;;;;;;;1.48;0.60;;;;;;;;;;4824976;29;20056;-76
2021/12/03 03:00:06;;;;;;;2.38;0.90;;;;;;;;;;4827780;29;20141;-76
2021/12/03 03:02:33;;;;;;;3.00;0.80;;;;;;;;;;4819769;29;20582;-77
2021/12/03 03:05:00;;;;;;;1.15;0.63;;;;;;;;;;4817108;29;20100;-75
2021/12/03 03:07:26;;;;;;;2.20;0.80;;;;;;;;;;4816643;29;20234;-76
2021/12/03 03:09:52;;;;;;;4.70;0.75;;;;;;;;;;4831524;29;20373;-76
2021/12/03 03:12:18;;;;;;;2.28;0.90;;;;;;;;;;4815241;29;20445;-75
2021/12/03 03:14:50;;;;;;;3.42;0.80;;;;;;;;;;4816147;29;20092;-77
2021/12/03 03:17:16;;;;;;;1.13;0.70;;;;;;;;;;4817913;29;20125;-76
2021/12/03 03:19:43;;;;;;;6.45;0.80;;;;;;;;;;4816450;29;20062;-76
2021/12/03 03:22:09;;;;;;;1.52;0.70;;;;;;;;;;4798502;29;20610;-76
2021/12/03 03:24:35;;;;;;;5.35;0.80;;;;;;;;;;4816298;29;20064;-75
2021/12/03 03:27:02;;;;;;;1.52;0.70;;;;;;;;;;4819063;29;21052;-74
2021/12/03 03:29:29;;;;;;;0.88;0.63;;;;;;;;;;4821179;29;20049;-76
2021/12/03 03:31:55;;;;;;;1.20;0.63;;;;;;;;;;4815103;29;20161;-74
2021/12/03 03:34:21;;;;;;;2.28;0.57;;;;;;;;;;4819709;29;20093;-74
2021/12/03 03:36:48;;;;;;;1.40;0.50;;;;;;;;;;4832323;29;20062;-76
2021/12/03 03:39:15;;;;;;;1.75;0.60;;;;;;;;;;4816247;29;20061;-79
2021/12/03 03:41:42;;;;;;;2.53;0.73;;;;;;;;;;4815890;29;20054;-75
2021/12/03 03:44:10;;;;;;;0.90;0.60;;;;;;;;;;4818358;29;20084;-76
2021/12/03 03:46:38;;;;;;;1.92;0.50;;;;;;;;;;4800595;29;20054;-75
2021/12/03 03:49:05;;;;;;;3.58;0.70;;;;;;;;;;4816451;29;20228;-78
2021/12/03 03:51:32;;;;;;;0.68;0.60;;;;;;;;;;4815931;29;20050;-76
2021/12/03 03:53:58;;;;;;;2.75;0.68;;;;;;;;;;4815962;29;20057;-74
2021/12/03 03:56:25;;;;;;;2.33;0.65;;;;;;;;;;4816444;29;20053;-75
2021/12/03 03:58:51;;;;;;;1.70;0.98;;;;;;;;;;4814314;29;20054;-75
2021/12/03 04:01:17;;;;;;;1.40;0.52;;;;;;;;;;4814995;29;20773;-80
2021/12/03 04:03:46;;;;;;;2.17;0.65;;;;;;;;;;4813937;29;20061;-75
2021/12/03 04:06:18;;;;;;;0.80;0.47;;;;;;;;;;4815331;29;20073;-78
2021/12/03 04:08:46;;;;;;;1.25;0.63;;;;;;;;;;4814470;29;20509;-76
2021/12/03 04:11:15;;;;;;;3.28;0.60;;;;;;;;;;4818193;29;20076;-77
2021/12/03 04:13:43;;;;;;;0.82;0.50;;;;;;;;;;4814217;29;20062;-75
2021/12/03 04:16:09;;;;;;;2.95;0.80;;;;;;;;;;4818665;29;20058;-77
2021/12/03 04:18:36;;;;;;;2.72;1.23;;;;;;;;;;4819956;29;20082;-77
2021/12/03 04:21:02;;;;;;;1.48;0.70;;;;;;;;;;4819212;29;20479;-78
2021/12/03 04:23:29;;;;;;;2.45;0.80;;;;;;;;;;4815950;29;20436;-76
2021/12/03 04:25:55;;;;;;;1.52;0.50;;;;;;;;;;4817683;29;20176;-75
2021/12/03 04:28:22;;;;;;;2.67;0.60;;;;;;;;;;4816329;29;20144;-77
2021/12/03 04:30:50;;;;;;;2.10;0.80;;;;;;;;;;4811883;29;20093;-76
2021/12/03 04:33:17;;;;;;;4.45;0.90;;;;;;;;;;4811751;29;20597;-76
2021/12/03 04:35:43;;;;;;;1.85;0.82;;;;;;;;;;4799615;29;20058;-77
2021/12/03 04:38:09;;;;;;;2.78;0.60;;;;;;;;;;4815171;29;20096;-78
2021/12/03 04:40:37;;;;;;;2.38;0.95;;;;;;;;;;4813857;29;20072;-77
2021/12/03 04:43:04;;;;;;;1.45;0.75;;;;;;;;;;4812146;29;20058;-76
2021/12/03 04:45:31;;;;;;;2.72;0.82;;;;;;;;;;4802796;29;20661;-75
2021/12/03 04:47:59;;;;;;;2.00;0.80;;;;;;;;;;4817303;29;20082;-74
2021/12/03 04:50:28;;;;;;;1.77;0.82;;;;;;;;;;4802611;29;20083;-75
2021/12/03 04:52:56;;;;;;;2.53;0.95;;;;;;;;;;4816983;29;20160;-75
2021/12/03 04:55:23;;;;;;;6.13;1.40;;;;;;;;;;4820167;29;20165;-75
2021/12/03 04:57:53;;;;;;;3.10;1.00;;;;;;;;;;4817995;29;20061;-74
2021/12/03 05:00:32;;;;;;;2.90;0.85;;;;;;;;;;4818183;29;21004;-74
2021/12/03 05:03:00;;;;;;;2.83;0.90;;;;;;;;;;4814846;29;20057;-78
2021/12/03 05:05:32;;;;;;;3.65;1.00;;;;;;;;;;4819510;29;20064;-75
2021/12/03 05:08:07;;;;;;;1.98;0.85;;;;;;;;;;4819788;29;20058;-75
2021/12/03 05:10:36;;;;;;;2.42;0.98;;;;;;;;;;4817895;29;20145;-75
2021/12/03 05:13:11;;;;;;;1.15;0.80;;;;;;;;;;4810769;29;20081;-76
2021/12/03 05:15:38;;;;;;;1.85;0.60;;;;;;;;;;4813865;29;20069;-80
2021/12/03 05:18:07;;;;;;;1.85;0.80;;;;;;;;;;4818367;29;20118;-79
2021/12/03 05:20:33;;;;;;;2.00;0.98;;;;;;;;;;4820021;29;20134;-77
2021/12/03 05:23:00;;;;;;;1.85;0.73;;;;;;;;;;4820765;29;20077;-76
2021/12/03 05:25:28;;;;;;;2.92;0.60;;;;;;;;;;4819991;29;20058;-77
2021/12/03 05:27:54;;;;;;;1.23;0.60;;;;;;;;;;4820576;29;20754;-74
2021/12/03 05:30:21;;;;;;;2.60;0.90;;;;;;;;;;4820523;29;20066;-74
2021/12/03 05:32:48;;;;;;;0.98;0.80;;;;;;;;;;4816700;29;20054;-76
2021/12/03 05:35:14;;;;;;;2.55;0.80;;;;;;;;;;4819770;29;20086;-78
2021/12/03 05:37:43;;;;;;;1.65;0.80;;;;;;;;;;4817470;29;20062;-78
2021/12/03 05:40:11;;;;;;;4.20;0.98;;;;;;;;;;4819855;29;20146;-75
2021/12/03 05:42:38;;;;;;;2.60;0.80;;;;;;;;;;4809242;29;20049;-75
2021/12/03 05:45:08;;;;;;;1.30;0.80;;;;;;;;;;4820454;29;20162;-78
2021/12/03 05:47:35;;;;;;;2.25;0.77;;;;;;;;;;4819893;29;20525;-78
2021/12/03 05:50:03;;;;;;;1.55;0.70;;;;;;;;;;4819043;29;20053;-77
2021/12/03 05:52:29;;;;;;;3.38;1.17;;;;;;;;;;4818071;29;21903;-79
2021/12/03 05:54:56;;;;;;;2.17;1.02;;;;;;;;;;4823631;29;20062;-79
2021/12/03 05:57:22;;;;;;;2.65;0.88;;;;;;;;;;4824670;29;20054;-78
2021/12/03 05:59:49;;;;;;;6.28;1.00;;;;;;;;;;4821167;29;20553;-74
2021/12/03 06:02:15;;;;;;;5.25;0.90;;;;;;;;;;4815456;29;20469;-77
2021/12/03 06:04:41;;;;;;;6.82;1.05;;;;;;;;;;4822564;29;20078;-77
2021/12/03 06:07:07;;;;;;;2.70;0.90;;;;;;;;;;4820940;29;20061;-75
2021/12/03 06:09:33;;;;;;;2.45;0.75;;;;;;;;;;4820527;29;20087;-78
2021/12/03 06:12:01;;;;;;;3.80;0.90;;;;;;;;;;4823618;29;20774;-77
2021/12/03 06:14:28;;;;;;;1.90;0.90;;;;;;;;;;4824946;29;20066;-75
2021/12/03 06:16:55;;;;;;;1.65;0.90;;;;;;;;;;4818570;29;20642;-75
2021/12/03 06:19:21;;;;;;;2.72;1.00;;;;;;;;;;4820269;29;20144;-76
2021/12/03 06:21:47;;;;;;;3.42;1.33;;;;;;;;;;4821880;29;20087;-75
2021/12/03 06:24:13;;;;;;;3.78;1.10;;;;;;;;;;4819405;29;20058;-74
2021/12/03 06:26:39;;;;;;;4.53;1.30;;;;;;;;;;4823149;29;20054;-76
2021/12/03 06:29:05;;;;;;;2.25;1.10;;;;;;;;;;4822186;29;20109;-80
2021/12/03 06:31:31;;;;;;;4.85;0.95;;;;;;;;;;4818417;29;20493;-77
2021/12/03 06:33:57;;;;;;;3.50;1.20;;;;;;;;;;4818259;29;20079;-77
2021/12/03 06:36:24;;;;;;;1.30;0.90;;;;;;;;;;4817788;29;20050;-77
2021/12/03 06:38:49;;;;;;;2.03;0.90;;;;;;;;;;4823644;29;20058;-76
2021/12/03 06:41:15;;;;;;;2.30;0.95;;;;;;;;;;4817613;29;20473;-76
2021/12/03 06:43:42;;;;;;;3.20;1.45;;;;;;;;;;4815677;29;20057;-78
2021/12/03 06:46:07;;;;;;;4.13;1.10;;;;;;;;;;4818666;29;20172;-77
2021/12/03 06:48:33;;;;;;;9.35;1.50;;;;;;;;;;4823462;29;20369;-77
2021/12/03 06:50:59;;;;;;;4.30;1.50;;;;;;;;;;4821829;29;20077;-76
2021/12/03 06:53:31;;;;;;;10.73;1.40;;;;;;;;;;4815399;29;20179;-75
2021/12/03 06:56:04;;;;;;;5.78;1.10;;;;;;;;;;4821366;29;20077;-77
2021/12/03 06:58:30;;;;;;;6.78;1.45;;;;;;;;;;4819032;29;20138;-75
2021/12/03 07:00:56;;;;;;;9.18;1.42;;;;;;;;;;4815181;29;20058;-77
2021/12/03 07:03:22;;;;;;;6.10;1.55;;;;;;;;;;4809277;29;20054;-73
2021/12/03 07:05:49;;;;;;;8.73;1.30;;;;;;;;;;4816877;29;20086;-75
2021/12/03 07:08:15;;;;;;;5.13;1.40;;;;;;;;;;4818924;29;20054;-78
2021/12/03 07:10:41;;;;;;;6.40;1.70;;;;;;;;;;4820713;29;20054;-76
2021/12/03 07:13:07;;;;;;;11.40;2.40;;;;;;;;;;4815915;29;20068;-77
2021/12/03 07:15:33;;;;;;;5.05;1.60;;;;;;;;;;4817666;29;20062;-77
2021/12/03 07:17:59;;;;;;;4.57;1.60;;;;;;;;;;4810754;29;20076;-76
2021/12/03 07:20:27;;;;;;;7.40;1.27;;;;;;;;;;4816988;29;20054;-77
2021/12/03 07:22:54;;;;;;;5.85;1.52;;;;;;;;;;4826170;29;20110;-76
2021/12/03 07:25:20;;;;;;;7.90;1.30;;;;;;;;;;4817535;29;20053;-78
2021/12/03 07:27:47;;;;;;;6.97;1.20;;;;;;;;;;4823840;29;20560;-78
2021/12/03 07:30:17;;;;;;;3.97;1.15;;;;;;;;;;4827410;29;20633;-78
2021/12/03 07:32:43;;;;;;;9.18;1.65;;;;;;;;;;4815451;29;20750;-78
2021/12/03 07:35:10;;;;;;;13.75;1.40;;;;;;;;;;4816213;29;20062;-74
2021/12/03 07:37:36;;;;;;;4.53;1.30;;;;;;;;;;4804820;29;20053;-76
2021/12/03 07:40:04;;;;;;;3.85;1.60;;;;;;;;;;4804245;29;20054;-73
2021/12/03 07:42:34;;;;;;;6.55;2.20;;;;;;;;;;4820721;29;20062;-74
2021/12/03 07:45:01;;;;;;;9.77;1.98;;;;;;;;;;4825439;29;20081;-75
2021/12/03 07:47:27;;;;;;;4.13;1.35;;;;;;;;;;4829085;29;20057;-79
2021/12/03 07:49:53;;;;;;;8.15;1.33;;;;;;;;;;4824678;29;20054;-76
2021/12/03 07:52:20;;;;;;;7.70;1.23;;;;;;;;;;4806869;29;20058;-73
2021/12/03 07:54:48;;;;;;;6.90;1.48;;;;;;;;;;4820287;29;20057;-75
2021/12/03 07:57:15;;;;;;;10.48;2.65;;;;;;;;;;4825194;29;20601;-79
2021/12/03 07:59:42;;;;;;;3.95;1.80;;;;;;;;;;4824996;29;20070;-76
2021/12/03 08:02:08;;;;;;;5.72;2.03;;;;;;;;;;4820583;29;20050;-78
2021/12/03 08:04:34;;;;;;;4.35;1.90;;;;;;;;;;4821745;29;20056;-78
2021/12/03 08:07:01;;;;;;;5.88;2.38;;;;;;;;;;4822706;29;20153;-74
2021/12/03 08:09:27;;;;;;;10.63;2.10;;;;;;;;;;4841419;29;20050;-75
2021/12/03 08:11:54;;;;;;;7.85;2.40;;;;;;;;;;4819458;29;20089;-71
2021/12/03 08:14:20;;;;;;;11.52;2.17;;;;;;;;;;4810505;29;20058;-76
2021/12/03 08:16:46;;;;;;;5.90;2.55;;;;;;;;;;4809669;29;20084;-72
2021/12/03 08:19:13;;;;;;;10.02;1.90;;;;;;;;;;4811220;29;20058;-73
2021/12/03 08:21:39;;;;;;;6.35;1.60;;;;;;;;;;4804648;29;20064;-72
2021/12/03 08:24:05;;;;;;;6.35;1.90;;;;;;;;;;4805401;29;20211;-76
2021/12/03 08:26:32;;;;;;;7.57;2.10;;;;;;;;;;4814721;29;20576;-72
2021/12/03 08:28:59;;;;;;;2.92;1.70;;;;;;;;;;4823150;29;20056;-75
2021/12/03 08:31:26;;;;;;;3.70;1.70;;;;;;;;;;4817413;29;20149;-71
2021/12/03 08:33:52;;;;;;;4.60;1.70;;;;;;;;;;4810141;29;20160;-73
2021/12/03 08:36:19;;;;;;;18.77;2.85;;;;;;;;;;4810931;29;20267;-74
2021/12/03 08:38:45;;;;;;;8.48;2.25;;;;;;;;;;4814812;29;20050;-74
2021/12/03 08:41:17;;;;;;;6.20;2.17;;;;;;;;;;4815623;29;20060;-74
2021/12/03 08:43:45;;;;;;;4.55;1.67;;;;;;;;;;4826816;29;20157;-73
2021/12/03 08:46:17;;;;;;;6.28;1.55;;;;;;;;;;4816026;29;20309;-75
2021/12/03 08:48:46;;;;;;;5.90;1.85;;;;;;;;;;4816445;29;20066;-73
2021/12/03 08:51:51;;;;;;;3.65;1.60;;;;;;;;;;4804646;29;20061;-77
2021/12/03 08:57:02;;;;;;;6.82;1.30;;;;;;;;;;4813169;29;20924;-73
2021/12/03 08:59:29;;;;;;;4.45;1.48;;;;;;;;;;4816842;29;20110;-76
2021/12/03 09:01:56;;;;;;;9.00;1.63;;;;;;;;;;4811897;29;20319;-73
2021/12/03 09:04:23;;;;;;;12.50;2.30;;;;;;;;;;4815547;29;20057;-68
2021/12/03 09:06:49;;;;;;;4.88;2.00;;;;;;;;;;4798865;29;20057;-72
2021/12/03 09:09:15;;;;;;;5.65;2.08;;;;;;;;;;4817509;29;20061;-74
2021/12/03 09:11:42;;;;;;;8.30;2.17;;;;;;;;;;4810260;29;20065;-72
2021/12/03 09:24:54;;;;;;;4.90;2.10;;;;;;;;;;4813571;29;20058;-73
2021/12/03 09:27:20;;;;;;;6.80;1.88;;;;;;;;;;4821890;29;20136;-70
2021/12/03 09:29:48;;;;;;;6.60;1.70;;;;;;;;;;4816553;29;20054;-71
2021/12/03 09:32:21;;;;;;;2.30;1.38;;;;;;;;;;4810945;29;20057;-74
2021/12/03 09:34:48;;;;;;;1.42;0.90;;;;;;;;;;4815329;29;20078;-71
2021/12/03 09:37:14;;;;;;;2.88;0.70;;;;;;;;;;4815262;29;20057;-74
2021/12/03 09:39:43;;;;;;;4.57;0.70;;;;;;;;;;4816081;29;20049;-75
2021/12/03 09:42:09;;;;;;;1.23;0.70;;;;;;;;;;4795199;29;20053;-74
2021/12/03 09:44:46;;;;;;;3.80;0.85;;;;;;;;;;4832681;29;20061;-75
2021/12/03 09:47:20;;;;;;;1.85;0.68;;;;;;;;;;4816184;29;20133;-77
2021/12/03 09:49:54;;;;;;;;;;;;;;;;;;4814352;29;20798;-73
2021/12/03 09:52:28;;;;;;;2.72;1.00;;;;;;;;;;4794239;29;19933;-74
2021/12/03 09:55:02;;;;;;;1.45;0.70;;;;;;;;;;4814349;29;20085;-74
2021/12/03 09:57:45;;;;;;;3.67;1.10;;;;;;;;;;4811675;29;20861;-71
2021/12/03 10:19:33;;;;;;;4.13;1.20;;;;;;;;;;4831542;29;20772;-72
2021/12/03 10:22:24;;;;;;;4.63;1.20;;;;;;;;;;4827910;29;20508;-74
2021/12/03 10:30:15;;;;;;;9.32;0.77;;;;;;;;;;4828110;29;20061;-74
2021/12/03 10:33:10;;;;;;;2.83;0.90;;;;;;;;;;4822446;29;20080;-80
2021/12/03 10:43:57;;;;;;;0.93;0.55;;;;;;;;;;4822350;29;20057;-74
2021/12/03 10:54:55;;;;;;;4.68;0.75;;;;;;;;;;4807080;29;20529;-75
2021/12/03 11:05:03;;;;;;;2.60;0.88;;;;;;;;;;4813613;29;20722;-76
2021/12/03 11:52:52;;;;;;;;;;;;;;;;;;4821700;29;20121;-77
2021/12/03 11:59:03;;;;;;;3.55;0.63;;;;;;;;;;4808054;29;20500;-74
2021/12/03 14:27:55;;;;;;;4.45;1.25;;;;;;;;;;4833155;29;20874;-76
2021/12/03 14:52:13;;;;;;;1.00;0.80;;;;;;;;;;4824867;29;20080;-76
2021/12/03 14:57:23;;;;;;;2.75;0.55;;;;;;;;;;4822385;29;20053;-75
2021/12/03 15:00:05;;;;;;;4.75;0.77;;;;;;;;;;4820830;29;20516;-75
2021/12/03 15:05:43;;;;;;;0.88;0.50;;;;;;;;;;4815691;29;20530;-76
2021/12/03 15:07:52;;;;;;;3.30;0.50;;;;;;;;;;4817831;29;20062;-78
2021/12/03 15:11:19;;;;;;;2.17;0.65;;;;;;;;;;4817226;29;20061;-77
2021/12/03 15:24:01;;;;;;;2.83;0.77;;;;;;;;;;4800543;29;20054;-77
2021/12/03 15:32:06;;;;;;;0.90;0.73;;;;;;;;;;4808199;29;20072;-77
2021/12/03 16:11:54;;;;;;;2.60;1.40;;;;;;;;;;4805993;29;20057;-76
2021/12/03 16:17:13;;;;;;;9.35;2.88;;;;;;;;;;4814204;29;20058;-77
2021/12/03 16:22:26;;;;;;;6.45;2.50;;;;;;;;;;4807213;29;20213;-76
2021/12/03 16:46:28;;;;;;;5.93;2.53;;;;;;;;;;4814824;29;20062;-75
2021/12/03 16:54:10;;;;;;;5.10;2.50;;;;;;;;;;4810495;29;20062;-77
2021/12/03 16:56:43;;;;;;;4.60;1.98;;;;;;;;;;4831435;29;20082;-76
2021/12/03 16:59:09;;;;;;;4.75;2.25;;;;;;;;;;4818760;29;20191;-74
2021/12/03 17:15:07;;;;;;;6.55;2.30;;;;;;;;;;4817240;29;20057;-76
2021/12/03 17:58:10;;;;;;;10.85;2.90;;;;;;;;;;4783613;29;20797;-74
2021/12/03 18:00:55;;;;;;;10.60;2.90;;;;;;;;;;4782231;29;20119;-76
2021/12/03 18:06:16;;;;;;;12.63;2.63;;;;;;;;;;4757128;29;20071;-72
2021/12/03 18:17:28;;;;;;;6.18;2.63;;;;;;;;;;4764132;29;20121;-75
2021/12/03 18:44:27;;;;;;;14.13;4.18;;;;;;;;;;4805926;29;20180;-75
2021/12/03 18:47:13;;;;;;;13.27;4.45;;;;;;;;;;4794908;29;20556;-74
2021/12/03 18:52:19;;;;;;;11.63;6.43;;;;;;;;;;4808185;29;20062;-78
2021/12/03 18:57:28;;;;;;;15.88;7.07;;;;;;;;;;4797636;29;20107;-77
2021/12/03 18:59:58;;;;;;;13.48;6.95;;;;;;;;;;4812665;29;20053;-74
2021/12/03 19:02:26;;;;;;;15.00;7.55;;;;;;;;;;4812614;29;20084;-79
2021/12/03 19:04:59;;;;;;;14.20;5.90;;;;;;;;;;4824198;29;20060;-77
2021/12/03 19:07:38;;;;;;;18.15;6.28;;;;;;;;;;4823899;29;21573;-78
2021/12/03 19:10:10;;;;;;;14.68;6.00;;;;;;;;;;4808343;29;20068;-79
2021/12/03 19:12:40;;;;;;;11.88;4.85;;;;;;;;;;4811038;29;20061;-78
2021/12/03 19:15:06;;;;;;;12.60;5.30;;;;;;;;;;4819940;29;20822;-81
2021/12/03 19:17:37;;;;;;;12.35;5.63;;;;;;;;;;4806109;29;20049;-79
2021/12/03 19:20:09;;;;;;;11.80;4.47;;;;;;;;;;4822114;29;20050;-79
2021/12/03 19:22:35;;;;;;;10.13;4.25;;;;;;;;;;4810459;29;20861;-77
2021/12/03 19:25:01;;;;;;;12.10;4.22;;;;;;;;;;4816315;29;20060;-75
2021/12/03 19:27:28;;;;;;;7.72;4.40;;;;;;;;;;4813241;29;20130;-79
2021/12/03 19:29:56;;;;;;;12.18;5.28;;;;;;;;;;4812866;29;20667;-78
2021/12/03 19:32:26;;;;;;;11.55;4.70;;;;;;;;;;4805999;29;20053;-79
2021/12/03 19:34:52;;;;;;;13.55;5.75;;;;;;;;;;4812853;29;20057;-77
2021/12/03 19:37:18;;;;;;;19.02;8.60;;;;;;;;;;4819784;29;20495;-79
2021/12/03 19:39:45;;;;;;;35.08;11.68;;;;;;;;;;4818166;29;20058;-82
2021/12/03 19:42:21;;;;;;;37.47;13.35;;;;;;;;;;4803237;29;21080;-80
2021/12/03 19:47:16;;;;;;;24.08;12.30;;;;;;;;;;4811517;29;20065;-77
2021/12/03 19:50:32;;;;;;;26.98;10.45;;;;;;;;;;4815981;29;20041;-81
2021/12/03 19:52:46;;;;;;;16.50;8.27;;;;;;;;;;4818275;29;20057;-82
2021/12/03 19:55:12;;;;;;;23.73;8.05;;;;;;;;;;4818661;29;20453;-77
2021/12/03 19:57:39;;;;;;;21.73;7.97;;;;;;;;;;4821626;29;20096;-77
2021/12/03 20:00:07;;;;;;;15.50;7.90;;;;;;;;;;4817814;29;20065;-79
2021/12/03 20:02:32;;;;;;;14.30;6.40;;;;;;;;;;4811856;29;21593;-79
2021/12/03 20:05:03;;;;;;;21.67;8.48;;;;;;;;;;4815302;29;20083;-74
2021/12/03 20:07:35;;;;;;;18.45;8.70;;;;;;;;;;4820188;29;20046;-76
2021/12/03 20:10:09;;;;;;;18.95;9.55;;;;;;;;;;4824292;29;20877;-75
2021/12/03 20:12:36;;;;;;;17.70;8.55;;;;;;;;;;4810844;29;20149;-80
2021/12/03 20:15:07;;;;;;;17.33;6.97;;;;;;;;;;4820580;29;20062;-77
2021/12/03 20:17:36;;;;;;;15.43;6.40;;;;;;;;;;4811485;29;20065;-78
2021/12/03 20:20:06;;;;;;;19.02;7.68;;;;;;;;;;4818362;29;20070;-77
2021/12/03 20:22:51;;;;;;;17.88;7.05;;;;;;;;;;4808461;29;20050;-75
2021/12/03 20:28:01;;;;;;;19.05;8.30;;;;;;;;;;4819411;29;20050;-76
2021/12/03 20:30:43;;;;;;;21.17;8.70;;;;;;;;;;4819484;29;20088;-77
2021/12/03 20:38:28;;;;;;;15.63;8.35;;;;;;;;;;4818109;29;20062;-78
2021/12/03 20:40:58;;;;;;;21.77;9.48;;;;;;;;;;4816961;29;20093;-78
2021/12/03 20:53:44;;;;;;;17.92;9.13;;;;;;;;;;4812495;29;20081;-76
2021/12/03 21:09:43;;;;;;;17.35;6.75;;;;;;;;;;4824346;29;20054;-79
2021/12/03 21:12:17;;;;;;;14.93;6.35;;;;;;;;;;4810442;29;20149;-77
2021/12/03 21:14:54;;;;;;;14.82;5.65;;;;;;;;;;4819327;29;20456;-79
2021/12/03 21:22:32;;;;;;;8.18;4.20;;;;;;;;;;4809930;29;20069;-75
2021/12/03 21:25:04;;;;;;;9.07;3.70;;;;;;;;;;4817160;29;20923;-77
2021/12/03 21:27:41;;;;;;;8.20;3.58;;;;;;;;;;4820701;29;21521;-78
2021/12/03 21:41:26;;;;;;;17.02;4.57;;;;;;;;;;4866904;29;20049;-81
2021/12/03 21:44:03;;;;;;;8.05;4.78;;;;;;;;;;4857776;29;20064;-79
2021/12/03 21:46:35;;;;;;;11.02;4.93;;;;;;;;;;4851628;29;20056;-76
2021/12/03 21:49:05;;;;;;;23.77;7.15;;;;;;;;;;4857098;29;20095;-76
2021/12/03 21:51:31;;;;;;;10.05;5.53;;;;;;;;;;4870966;29;20204;-77
2021/12/03 21:53:57;;;;;;;11.50;5.13;;;;;;;;;;4844876;29;20052;-76
2021/12/03 21:56:24;;;;;;;10.20;4.15;;;;;;;;;;4868725;29;20053;-77
2021/12/03 21:58:51;;;;;;;11.02;4.03;;;;;;;;;;4852168;29;20053;-76
2021/12/03 22:01:19;;;;;;;8.15;4.20;;;;;;;;;;4867668;29;20107;-78
2021/12/03 22:03:46;;;;;;;7.90;3.42;;;;;;;;;;4861954;29;21034;-78
2021/12/03 22:06:12;;;;;;;8.25;3.50;;;;;;;;;;4856526;29;20482;-79
2021/12/03 22:08:39;;;;;;;8.82;3.00;;;;;;;;;;4873371;29;20107;-81
2021/12/03 22:11:06;;;;;;;8.95;3.92;;;;;;;;;;4879120;29;20092;-78
2021/12/03 22:13:32;;;;;;;9.38;3.45;;;;;;;;;;4828749;29;20825;-77
2021/12/03 22:16:01;;;;;;;6.35;3.30;;;;;;;;;;4825757;29;20064;-77
2021/12/03 22:18:28;;;;;;;7.28;3.22;;;;;;;;;;4819920;29;20053;-78
2021/12/03 22:20:57;;;;;;;7.72;3.83;;;;;;;;;;4814567;29;20127;-78
2021/12/03 22:23:24;;;;;;;11.32;3.40;;;;;;;;;;4813425;29;20074;-77
2021/12/03 22:25:52;;;;;;;13.15;4.28;;;;;;;;;;4817965;29;20077;-77
2021/12/03 22:28:20;;;;;;;5.47;3.50;;;;;;;;;;4820928;29;20050;-77
2021/12/03 22:30:46;;;;;;;6.28;3.30;;;;;;;;;;4815462;29;20077;-78
2021/12/03 22:33:13;;;;;;;7.55;3.28;;;;;;;;;;4805529;29;20064;-77
2021/12/03 22:35:40;;;;;;;7.32;3.85;;;;;;;;;;4817455;29;20061;-77
2021/12/03 22:38:09;;;;;;;6.88;3.58;;;;;;;;;;4816321;29;20680;-77
2021/12/03 22:40:43;;;;;;;8.15;3.88;;;;;;;;;;4807692;29;20058;-74
2021/12/03 22:43:12;;;;;;;5.68;3.65;;;;;;;;;;4805972;29;20069;-78
2021/12/03 22:45:54;;;;;;;10.95;4.03;;;;;;;;;;4802817;29;20073;-75
2021/12/03 22:53:44;;;;;;;10.20;3.67;;;;;;;;;;4804752;29;20609;-78
2021/12/03 22:56:11;;;;;;;7.57;3.42;;;;;;;;;;4819838;29;20512;-80
2021/12/03 22:58:38;;;;;;;5.05;3.80;;;;;;;;;;4817769;29;20064;-74
2021/12/03 23:01:06;;;;;;;7.25;4.13;;;;;;;;;;4815238;29;20061;-77
2021/12/03 23:03:34;;;;;;;5.88;3.05;;;;;;;;;;4808377;29;20189;-74
2021/12/03 23:06:03;;;;;;;4.28;2.67;;;;;;;;;;4819336;29;20068;-80
2021/12/03 23:08:31;;;;;;;7.40;3.05;;;;;;;;;;4807101;29;20712;-75
2021/12/03 23:10:58;;;;;;;6.68;3.00;;;;;;;;;;4812041;29;20141;-75
2021/12/03 23:13:27;;;;;;;8.25;3.08;;;;;;;;;;4801039;29;20061;-76
2021/12/03 23:15:54;;;;;;;6.47;3.10;;;;;;;;;;4811884;29;20098;-79
2021/12/03 23:18:22;;;;;;;8.85;3.10;;;;;;;;;;4810836;29;20064;-78
2021/12/03 23:20:54;;;;;;;6.10;3.22;;;;;;;;;;4812089;29;20089;-75
2021/12/03 23:23:22;;;;;;;7.45;3.47;;;;;;;;;;4797337;29;20054;-73
2021/12/03 23:25:55;;;;;;;7.25;3.65;;;;;;;;;;4830728;29;20058;-75
2021/12/03 23:28:24;;;;;;;9.60;3.15;;;;;;;;;;4803702;29;20125;-76
2021/12/03 23:30:52;;;;;;;8.45;3.53;;;;;;;;;;4821481;29;20070;-77